Terminal Aerodrome Forecast
Issued by NWS Cleveland, OH

Home | Current Version | Previous Version | Graphics & Text | Print | Product List | Glossary Off
Versions: 1 2 3 4 5 6 7 8 9 10 11 12 13 14 15 16 17 18 19 20

000
FTUS41 KCLE 270500
TAFERI
TAF
KERI 270527Z 2706/2806 06006KT 6SM -SHSN SCT012 OVC025
     FM271200 32006KT P6SM VCSH OVC025
     FM272300 30010KT P6SM OVC012
      TEMPO 2723/2802 3SM -SHSN=

USA.gov is the U.S. government's official web portal to all federal, state and local government web resources and services.